sensor_id;sensor_type;location;lat;lon;timestamp;P1;durP1;ratioP1;P2;durP2;ratioP2
41943;SDS011;27636;52.610;13.244;2023-08-06T00:02:05;10.75;;;4.25;;
41943;SDS011;27636;52.610;13.244;2023-08-06T00:07:10;22.38;;;3.97;;
41943;SDS011;27636;52.610;13.244;2023-08-06T00:12:14;9.43;;;4.70;;
41943;SDS011;27636;52.610;13.244;2023-08-06T00:17:17;13.90;;;5.25;;
41943;SDS011;27636;52.610;13.244;2023-08-06T00:22:23;9.38;;;4.65;;
41943;SDS011;27636;52.610;13.244;2023-08-06T00:27:27;10.43;;;4.70;;
41943;SDS011;27636;52.610;13.244;2023-08-06T00:32:31;8.60;;;4.10;;
41943;SDS011;27636;52.610;13.244;2023-08-06T00:37:36;12.23;;;4.30;;
41943;SDS011;27636;52.610;13.244;2023-08-06T00:42:39;10.40;;;5.45;;
41943;SDS011;27636;52.610;13.244;2023-08-06T00:47:43;10.90;;;5.32;;
41943;SDS011;27636;52.610;13.244;2023-08-06T00:52:48;9.05;;;5.15;;
41943;SDS011;27636;52.610;13.244;2023-08-06T00:57:52;10.00;;;5.13;;
41943;SDS011;27636;52.610;13.244;2023-08-06T01:02:59;10.15;;;5.30;;
41943;SDS011;27636;52.610;13.244;2023-08-06T01:08:08;12.75;;;5.82;;
41943;SDS011;27636;52.610;13.244;2023-08-06T01:13:22;11.02;;;5.13;;
41943;SDS011;27636;52.610;13.244;2023-08-06T01:18:32;14.07;;;6.03;;
41943;SDS011;27636;52.610;13.244;2023-08-06T01:23:38;12.23;;;5.78;;
41943;SDS011;27636;52.610;13.244;2023-08-06T01:33:51;10.18;;;5.40;;
41943;SDS011;27636;52.610;13.244;2023-08-06T01:38:58;12.57;;;6.28;;
41943;SDS011;27636;52.610;13.244;2023-08-06T01:44:02;10.18;;;5.53;;
41943;SDS011;27636;52.610;13.244;2023-08-06T01:49:07;13.68;;;5.75;;
41943;SDS011;27636;52.610;13.244;2023-08-06T01:54:12;15.02;;;7.13;;
41943;SDS011;27636;52.610;13.244;2023-08-06T01:59:16;12.48;;;5.38;;
41943;SDS011;27636;52.610;13.244;2023-08-06T02:04:20;11.45;;;6.30;;
41943;SDS011;27636;52.610;13.244;2023-08-06T02:09:24;17.67;;;7.25;;
41943;SDS011;27636;52.610;13.244;2023-08-06T02:14:28;12.80;;;6.30;;
41943;SDS011;27636;52.610;13.244;2023-08-06T02:19:32;14.70;;;6.65;;
41943;SDS011;27636;52.610;13.244;2023-08-06T02:24:36;12.73;;;6.03;;
41943;SDS011;27636;52.610;13.244;2023-08-06T02:29:40;13.43;;;6.85;;
41943;SDS011;27636;52.610;13.244;2023-08-06T02:34:44;12.02;;;6.25;;
41943;SDS011;27636;52.610;13.244;2023-08-06T02:39:50;13.23;;;6.32;;
41943;SDS011;27636;52.610;13.244;2023-08-06T02:44:53;10.52;;;5.78;;
41943;SDS011;27636;52.610;13.244;2023-08-06T02:50:00;16.45;;;6.78;;
41943;SDS011;27636;52.610;13.244;2023-08-06T02:55:06;11.98;;;6.10;;
41943;SDS011;27636;52.610;13.244;2023-08-06T03:00:14;11.20;;;6.05;;
41943;SDS011;27636;52.610;13.244;2023-08-06T03:05:19;10.90;;;5.87;;
41943;SDS011;27636;52.610;13.244;2023-08-06T03:15:31;16.30;;;5.47;;
41943;SDS011;27636;52.610;13.244;2023-08-06T03:20:35;14.32;;;6.75;;
41943;SDS011;27636;52.610;13.244;2023-08-06T03:25:40;13.40;;;6.43;;
41943;SDS011;27636;52.610;13.244;2023-08-06T03:30:44;13.35;;;6.57;;
41943;SDS011;27636;52.610;13.244;2023-08-06T03:35:48;10.00;;;5.47;;
41943;SDS011;27636;52.610;13.244;2023-08-06T03:40:55;16.52;;;6.40;;
41943;SDS011;27636;52.610;13.244;2023-08-06T03:45:59;14.50;;;7.22;;
41943;SDS011;27636;52.610;13.244;2023-08-06T03:51:03;12.93;;;6.53;;
41943;SDS011;27636;52.610;13.244;2023-08-06T03:56:09;11.20;;;6.45;;
41943;SDS011;27636;52.610;13.244;2023-08-06T04:01:13;15.50;;;6.55;;
41943;SDS011;27636;52.610;13.244;2023-08-06T04:06:19;12.00;;;6.45;;
41943;SDS011;27636;52.610;13.244;2023-08-06T04:11:24;12.75;;;7.05;;
41943;SDS011;27636;52.610;13.244;2023-08-06T04:16:28;14.35;;;6.95;;
41943;SDS011;27636;52.610;13.244;2023-08-06T04:21:31;12.57;;;6.68;;
41943;SDS011;27636;52.610;13.244;2023-08-06T04:26:36;13.65;;;6.38;;
41943;SDS011;27636;52.610;13.244;2023-08-06T04:31:40;13.20;;;6.93;;
41943;SDS011;27636;52.610;13.244;2023-08-06T04:36:44;17.15;;;7.97;;
41943;SDS011;27636;52.610;13.244;2023-08-06T04:41:49;13.57;;;6.55;;
41943;SDS011;27636;52.610;13.244;2023-08-06T04:46:55;12.88;;;7.10;;
41943;SDS011;27636;52.610;13.244;2023-08-06T04:51:58;14.35;;;7.18;;
41943;SDS011;27636;52.610;13.244;2023-08-06T04:57:04;14.75;;;6.18;;
41943;SDS011;27636;52.610;13.244;2023-08-06T05:02:08;13.15;;;7.63;;
41943;SDS011;27636;52.610;13.244;2023-08-06T05:07:11;15.60;;;6.47;;
41943;SDS011;27636;52.610;13.244;2023-08-06T05:12:16;13.48;;;7.13;;
41943;SDS011;27636;52.610;13.244;2023-08-06T05:17:20;16.88;;;7.28;;
41943;SDS011;27636;52.610;13.244;2023-08-06T05:22:25;15.38;;;8.30;;
41943;SDS011;27636;52.610;13.244;2023-08-06T05:27:30;14.18;;;6.78;;
41943;SDS011;27636;52.610;13.244;2023-08-06T05:32:34;13.43;;;6.60;;
41943;SDS011;27636;52.610;13.244;2023-08-06T05:37:37;13.57;;;6.72;;
41943;SDS011;27636;52.610;13.244;2023-08-06T05:42:42;16.70;;;6.85;;
41943;SDS011;27636;52.610;13.244;2023-08-06T05:47:47;12.05;;;6.72;;
41943;SDS011;27636;52.610;13.244;2023-08-06T05:57:56;13.13;;;6.57;;
41943;SDS011;27636;52.610;13.244;2023-08-06T06:03:00;13.85;;;6.18;;
41943;SDS011;27636;52.610;13.244;2023-08-06T06:08:05;13.35;;;7.03;;
41943;SDS011;27636;52.610;13.244;2023-08-06T06:13:09;12.30;;;6.75;;
41943;SDS011;27636;52.610;13.244;2023-08-06T06:18:13;15.48;;;6.35;;
41943;SDS011;27636;52.610;13.244;2023-08-06T06:23:16;14.43;;;7.38;;
41943;SDS011;27636;52.610;13.244;2023-08-06T06:28:22;13.00;;;6.90;;
41943;SDS011;27636;52.610;13.244;2023-08-06T06:33:26;16.83;;;7.30;;
41943;SDS011;27636;52.610;13.244;2023-08-06T06:38:29;12.32;;;6.85;;
41943;SDS011;27636;52.610;13.244;2023-08-06T06:43:34;16.60;;;6.97;;
41943;SDS011;27636;52.610;13.244;2023-08-06T06:48:38;16.23;;;7.00;;
41943;SDS011;27636;52.610;13.244;2023-08-06T06:53:41;13.35;;;6.60;;
41943;SDS011;27636;52.610;13.244;2023-08-06T06:58:46;15.88;;;7.53;;
41943;SDS011;27636;52.610;13.244;2023-08-06T07:03:50;14.40;;;6.75;;
41943;SDS011;27636;52.610;13.244;2023-08-06T07:08:55;15.95;;;6.82;;
41943;SDS011;27636;52.610;13.244;2023-08-06T07:13:59;11.30;;;5.85;;
41943;SDS011;27636;52.610;13.244;2023-08-06T07:19:03;13.95;;;6.88;;
41943;SDS011;27636;52.610;13.244;2023-08-06T07:24:08;11.52;;;6.25;;
41943;SDS011;27636;52.610;13.244;2023-08-06T07:29:13;12.73;;;6.53;;
41943;SDS011;27636;52.610;13.244;2023-08-06T07:39:20;14.07;;;7.15;;
41943;SDS011;27636;52.610;13.244;2023-08-06T07:44:27;15.73;;;6.80;;
41943;SDS011;27636;52.610;13.244;2023-08-06T07:49:30;11.40;;;6.18;;
41943;SDS011;27636;52.610;13.244;2023-08-06T07:54:34;15.32;;;7.75;;
41943;SDS011;27636;52.610;13.244;2023-08-06T07:59:39;13.77;;;6.28;;
41943;SDS011;27636;52.610;13.244;2023-08-06T08:04:42;11.38;;;6.47;;
41943;SDS011;27636;52.610;13.244;2023-08-06T08:09:46;14.38;;;6.15;;
41943;SDS011;27636;52.610;13.244;2023-08-06T08:14:52;15.90;;;7.30;;
41943;SDS011;27636;52.610;13.244;2023-08-06T08:19:55;13.70;;;6.60;;
41943;SDS011;27636;52.610;13.244;2023-08-06T08:24:59;13.10;;;6.88;;
41943;SDS011;27636;52.610;13.244;2023-08-06T08:30:05;16.67;;;8.52;;
41943;SDS011;27636;52.610;13.244;2023-08-06T08:35:09;12.65;;;6.60;;
41943;SDS011;27636;52.610;13.244;2023-08-06T08:40:15;15.52;;;6.53;;
41943;SDS011;27636;52.610;13.244;2023-08-06T08:45:20;19.55;;;8.95;;
41943;SDS011;27636;52.610;13.244;2023-08-06T08:50:28;17.65;;;7.30;;
41943;SDS011;27636;52.610;13.244;2023-08-06T08:55:32;13.35;;;7.13;;
41943;SDS011;27636;52.610;13.244;2023-08-06T09:00:37;15.98;;;8.77;;
41943;SDS011;27636;52.610;13.244;2023-08-06T09:05:43;15.73;;;7.40;;
41943;SDS011;27636;52.610;13.244;2023-08-06T09:10:48;16.67;;;7.28;;
41943;SDS011;27636;52.610;13.244;2023-08-06T09:20:58;14.02;;;6.78;;
41943;SDS011;27636;52.610;13.244;2023-08-06T09:26:01;14.05;;;6.93;;
41943;SDS011;27636;52.610;13.244;2023-08-06T09:31:07;12.68;;;7.72;;
41943;SDS011;27636;52.610;13.244;2023-08-06T09:36:11;14.18;;;7.50;;
41943;SDS011;27636;52.610;13.244;2023-08-06T09:41:18;14.68;;;7.53;;
41943;SDS011;27636;52.610;13.244;2023-08-06T09:46:32;16.50;;;8.45;;
41943;SDS011;27636;52.610;13.244;2023-08-06T09:51:36;17.10;;;7.72;;
41943;SDS011;27636;52.610;13.244;2023-08-06T09:56:42;15.75;;;7.93;;
41943;SDS011;27636;52.610;13.244;2023-08-06T10:01:48;15.73;;;8.50;;
41943;SDS011;27636;52.610;13.244;2023-08-06T10:06:52;18.83;;;8.52;;
41943;SDS011;27636;52.610;13.244;2023-08-06T10:11:56;20.23;;;9.00;;
41943;SDS011;27636;52.610;13.244;2023-08-06T10:17:03;20.90;;;9.35;;
41943;SDS011;27636;52.610;13.244;2023-08-06T10:22:07;18.48;;;8.32;;
41943;SDS011;27636;52.610;13.244;2023-08-06T10:27:13;19.70;;;9.52;;
41943;SDS011;27636;52.610;13.244;2023-08-06T10:32:18;22.27;;;9.32;;
41943;SDS011;27636;52.610;13.244;2023-08-06T10:37:21;13.30;;;7.68;;
41943;SDS011;27636;52.610;13.244;2023-08-06T10:42:26;16.02;;;8.95;;
41943;SDS011;27636;52.610;13.244;2023-08-06T10:47:32;20.77;;;9.07;;
41943;SDS011;27636;52.610;13.244;2023-08-06T10:52:46;14.30;;;8.18;;
41943;SDS011;27636;52.610;13.244;2023-08-06T10:57:50;17.10;;;8.80;;
41943;SDS011;27636;52.610;13.244;2023-08-06T11:02:55;15.77;;;8.73;;
41943;SDS011;27636;52.610;13.244;2023-08-06T11:07:59;19.10;;;9.00;;
41943;SDS011;27636;52.610;13.244;2023-08-06T11:13:03;18.52;;;9.05;;
41943;SDS011;27636;52.610;13.244;2023-08-06T11:18:08;17.33;;;8.80;;
41943;SDS011;27636;52.610;13.244;2023-08-06T11:23:12;16.45;;;7.82;;
41943;SDS011;27636;52.610;13.244;2023-08-06T11:28:18;16.70;;;7.72;;
41943;SDS011;27636;52.610;13.244;2023-08-06T11:33:26;19.08;;;8.93;;
41943;SDS011;27636;52.610;13.244;2023-08-06T11:38:30;18.85;;;8.93;;
41943;SDS011;27636;52.610;13.244;2023-08-06T11:43:34;17.60;;;8.45;;
41943;SDS011;27636;52.610;13.244;2023-08-06T11:48:51;17.77;;;8.88;;
41943;SDS011;27636;52.610;13.244;2023-08-06T11:53:55;17.33;;;7.80;;
41943;SDS011;27636;52.610;13.244;2023-08-06T11:59:00;18.50;;;8.40;;
41943;SDS011;27636;52.610;13.244;2023-08-06T12:04:06;17.53;;;8.53;;
41943;SDS011;27636;52.610;13.244;2023-08-06T12:09:09;16.02;;;8.05;;
41943;SDS011;27636;52.610;13.244;2023-08-06T12:14:13;15.00;;;8.00;;
41943;SDS011;27636;52.610;13.244;2023-08-06T12:19:18;16.92;;;8.73;;
41943;SDS011;27636;52.610;13.244;2023-08-06T12:29:25;15.55;;;8.35;;
41943;SDS011;27636;52.610;13.244;2023-08-06T12:34:31;16.65;;;8.68;;
41943;SDS011;27636;52.610;13.244;2023-08-06T12:39:53;18.33;;;7.82;;
41943;SDS011;27636;52.610;13.244;2023-08-06T12:44:56;13.77;;;7.47;;
41943;SDS011;27636;52.610;13.244;2023-08-06T12:50:01;13.60;;;6.15;;
41943;SDS011;27636;52.610;13.244;2023-08-06T12:55:05;12.70;;;6.00;;
41943;SDS011;27636;52.610;13.244;2023-08-06T13:00:09;13.70;;;7.07;;
41943;SDS011;27636;52.610;13.244;2023-08-06T13:05:14;11.27;;;5.83;;
41943;SDS011;27636;52.610;13.244;2023-08-06T13:10:18;15.15;;;6.80;;
41943;SDS011;27636;52.610;13.244;2023-08-06T13:15:23;15.65;;;7.65;;
41943;SDS011;27636;52.610;13.244;2023-08-06T13:20:29;13.85;;;6.88;;
41943;SDS011;27636;52.610;13.244;2023-08-06T13:25:33;15.52;;;6.70;;
41943;SDS011;27636;52.610;13.244;2023-08-06T13:30:39;14.88;;;6.57;;
41943;SDS011;27636;52.610;13.244;2023-08-06T13:35:46;14.02;;;6.65;;
41943;SDS011;27636;52.610;13.244;2023-08-06T13:40:50;12.38;;;6.57;;
41943;SDS011;27636;52.610;13.244;2023-08-06T13:45:53;16.08;;;7.93;;
41943;SDS011;27636;52.610;13.244;2023-08-06T13:50:58;16.35;;;7.95;;
41943;SDS011;27636;52.610;13.244;2023-08-06T13:56:02;11.05;;;5.20;;
41943;SDS011;27636;52.610;13.244;2023-08-06T14:01:09;15.82;;;6.38;;
41943;SDS011;27636;52.610;13.244;2023-08-06T14:06:17;12.88;;;5.95;;
41943;SDS011;27636;52.610;13.244;2023-08-06T14:16:25;10.75;;;4.80;;
41943;SDS011;27636;52.610;13.244;2023-08-06T14:21:30;9.70;;;4.82;;
41943;SDS011;27636;52.610;13.244;2023-08-06T14:31:37;9.27;;;4.28;;
41943;SDS011;27636;52.610;13.244;2023-08-06T14:36:43;8.23;;;4.47;;
41943;SDS011;27636;52.610;13.244;2023-08-06T14:41:46;10.63;;;3.70;;
41943;SDS011;27636;52.610;13.244;2023-08-06T14:46:51;9.93;;;3.88;;
41943;SDS011;27636;52.610;13.244;2023-08-06T14:51:56;6.13;;;3.30;;
41943;SDS011;27636;52.610;13.244;2023-08-06T14:57:03;9.25;;;4.20;;
41943;SDS011;27636;52.610;13.244;2023-08-06T15:02:07;8.90;;;3.53;;
41943;SDS011;27636;52.610;13.244;2023-08-06T15:07:12;11.00;;;3.60;;
41943;SDS011;27636;52.610;13.244;2023-08-06T15:12:16;11.32;;;4.20;;
41943;SDS011;27636;52.610;13.244;2023-08-06T15:17:20;6.10;;;3.17;;
41943;SDS011;27636;52.610;13.244;2023-08-06T15:22:25;6.50;;;2.95;;
41943;SDS011;27636;52.610;13.244;2023-08-06T15:27:29;7.20;;;3.42;;
41943;SDS011;27636;52.610;13.244;2023-08-06T15:32:32;10.18;;;3.65;;
41943;SDS011;27636;52.610;13.244;2023-08-06T15:37:37;12.73;;;3.67;;
41943;SDS011;27636;52.610;13.244;2023-08-06T15:47:45;8.05;;;3.08;;
41943;SDS011;27636;52.610;13.244;2023-08-06T15:52:50;8.45;;;3.25;;
41943;SDS011;27636;52.610;13.244;2023-08-06T15:57:54;8.57;;;3.72;;
41943;SDS011;27636;52.610;13.244;2023-08-06T16:02:57;6.75;;;3.15;;
41943;SDS011;27636;52.610;13.244;2023-08-06T16:08:03;7.25;;;3.92;;
41943;SDS011;27636;52.610;13.244;2023-08-06T16:13:08;6.43;;;2.80;;
41943;SDS011;27636;52.610;13.244;2023-08-06T16:18:11;6.53;;;3.08;;
41943;SDS011;27636;52.610;13.244;2023-08-06T16:23:16;6.50;;;2.88;;
41943;SDS011;27636;52.610;13.244;2023-08-06T16:28:21;8.75;;;2.88;;
41943;SDS011;27636;52.610;13.244;2023-08-06T16:33:24;6.70;;;2.90;;
41943;SDS011;27636;52.610;13.244;2023-08-06T16:38:29;6.22;;;2.97;;
41943;SDS011;27636;52.610;13.244;2023-08-06T16:43:33;8.73;;;3.17;;
41943;SDS011;27636;52.610;13.244;2023-08-06T16:48:37;10.05;;;3.13;;
41943;SDS011;27636;52.610;13.244;2023-08-06T16:53:42;10.30;;;2.83;;
41943;SDS011;27636;52.610;13.244;2023-08-06T16:58:47;9.32;;;2.60;;
41943;SDS011;27636;52.610;13.244;2023-08-06T17:03:50;6.97;;;2.45;;
41943;SDS011;27636;52.610;13.244;2023-08-06T17:08:58;7.10;;;3.05;;
41943;SDS011;27636;52.610;13.244;2023-08-06T17:14:02;7.88;;;3.17;;
41943;SDS011;27636;52.610;13.244;2023-08-06T17:19:07;6.65;;;2.92;;
41943;SDS011;27636;52.610;13.244;2023-08-06T17:24:11;11.35;;;2.60;;
41943;SDS011;27636;52.610;13.244;2023-08-06T17:29:15;7.20;;;3.35;;
41943;SDS011;27636;52.610;13.244;2023-08-06T17:34:19;6.63;;;2.42;;
41943;SDS011;27636;52.610;13.244;2023-08-06T17:39:24;6.65;;;2.85;;
41943;SDS011;27636;52.610;13.244;2023-08-06T17:44:27;10.77;;;3.42;;
41943;SDS011;27636;52.610;13.244;2023-08-06T17:49:31;9.90;;;3.15;;
41943;SDS011;27636;52.610;13.244;2023-08-06T17:54:36;5.95;;;2.67;;
41943;SDS011;27636;52.610;13.244;2023-08-06T17:59:39;7.40;;;2.67;;
41943;SDS011;27636;52.610;13.244;2023-08-06T18:04:43;6.28;;;2.70;;
41943;SDS011;27636;52.610;13.244;2023-08-06T18:09:48;12.80;;;3.30;;
41943;SDS011;27636;52.610;13.244;2023-08-06T18:14:51;9.38;;;3.65;;
41943;SDS011;27636;52.610;13.244;2023-08-06T18:19:55;7.35;;;2.92;;
41943;SDS011;27636;52.610;13.244;2023-08-06T18:25:01;7.03;;;3.20;;
41943;SDS011;27636;52.610;13.244;2023-08-06T18:30:07;7.65;;;3.25;;
41943;SDS011;27636;52.610;13.244;2023-08-06T18:35:12;11.18;;;4.68;;
41943;SDS011;27636;52.610;13.244;2023-08-06T18:40:17;13.38;;;5.07;;
41943;SDS011;27636;52.610;13.244;2023-08-06T18:45:21;10.18;;;4.97;;
41943;SDS011;27636;52.610;13.244;2023-08-06T18:50:25;12.20;;;4.25;;
41943;SDS011;27636;52.610;13.244;2023-08-06T18:55:30;8.40;;;3.80;;
41943;SDS011;27636;52.610;13.244;2023-08-06T19:00:38;9.55;;;3.42;;
41943;SDS011;27636;52.610;13.244;2023-08-06T19:05:42;13.73;;;7.63;;
41943;SDS011;27636;52.610;13.244;2023-08-06T19:10:47;13.63;;;6.90;;
41943;SDS011;27636;52.610;13.244;2023-08-06T19:15:52;16.05;;;6.20;;
41943;SDS011;27636;52.610;13.244;2023-08-06T19:20:55;13.02;;;5.43;;
41943;SDS011;27636;52.610;13.244;2023-08-06T19:26:03;10.95;;;5.85;;
41943;SDS011;27636;52.610;13.244;2023-08-06T19:31:07;14.45;;;4.78;;
41943;SDS011;27636;52.610;13.244;2023-08-06T19:36:11;13.32;;;4.53;;
41943;SDS011;27636;52.610;13.244;2023-08-06T19:41:17;10.53;;;4.23;;
41943;SDS011;27636;52.610;13.244;2023-08-06T19:46:21;10.40;;;3.60;;
41943;SDS011;27636;52.610;13.244;2023-08-06T19:51:24;10.25;;;4.75;;
41943;SDS011;27636;52.610;13.244;2023-08-06T19:56:30;8.18;;;3.22;;
41943;SDS011;27636;52.610;13.244;2023-08-06T20:01:33;7.45;;;3.30;;
41943;SDS011;27636;52.610;13.244;2023-08-06T20:06:37;7.35;;;3.05;;
41943;SDS011;27636;52.610;13.244;2023-08-06T20:11:42;7.90;;;3.10;;
41943;SDS011;27636;52.610;13.244;2023-08-06T20:16:45;8.23;;;3.22;;
41943;SDS011;27636;52.610;13.244;2023-08-06T20:21:49;9.40;;;2.92;;
41943;SDS011;27636;52.610;13.244;2023-08-06T20:26:54;10.23;;;3.45;;
41943;SDS011;27636;52.610;13.244;2023-08-06T20:31:59;7.38;;;3.15;;
41943;SDS011;27636;52.610;13.244;2023-08-06T20:37:03;10.70;;;3.70;;
41943;SDS011;27636;52.610;13.244;2023-08-06T20:42:09;11.55;;;3.80;;
41943;SDS011;27636;52.610;13.244;2023-08-06T20:47:13;7.05;;;3.35;;
41943;SDS011;27636;52.610;13.244;2023-08-06T20:52:17;9.38;;;4.13;;
41943;SDS011;27636;52.610;13.244;2023-08-06T20:57:22;6.38;;;3.00;;
41943;SDS011;27636;52.610;13.244;2023-08-06T21:02:25;7.70;;;2.40;;
41943;SDS011;27636;52.610;13.244;2023-08-06T21:07:29;6.40;;;2.92;;
41943;SDS011;27636;52.610;13.244;2023-08-06T21:12:34;7.80;;;2.63;;
41943;SDS011;27636;52.610;13.244;2023-08-06T21:17:37;7.78;;;2.58;;
41943;SDS011;27636;52.610;13.244;2023-08-06T21:22:41;6.25;;;2.85;;
41943;SDS011;27636;52.610;13.244;2023-08-06T21:27:46;8.10;;;2.80;;
41943;SDS011;27636;52.610;13.244;2023-08-06T21:32:50;5.97;;;2.50;;
41943;SDS011;27636;52.610;13.244;2023-08-06T21:37:54;12.93;;;3.10;;
41943;SDS011;27636;52.610;13.244;2023-08-06T21:42:59;8.00;;;3.13;;
41943;SDS011;27636;52.610;13.244;2023-08-06T21:53:06;6.07;;;2.85;;
41943;SDS011;27636;52.610;13.244;2023-08-06T21:58:11;6.63;;;2.70;;
41943;SDS011;27636;52.610;13.244;2023-08-06T22:03:15;6.50;;;2.38;;
41943;SDS011;27636;52.610;13.244;2023-08-06T22:08:19;8.02;;;2.70;;
41943;SDS011;27636;52.610;13.244;2023-08-06T22:13:24;6.93;;;2.38;;
41943;SDS011;27636;52.610;13.244;2023-08-06T22:18:28;8.38;;;2.65;;
41943;SDS011;27636;52.610;13.244;2023-08-06T22:23:32;6.65;;;2.60;;
41943;SDS011;27636;52.610;13.244;2023-08-06T22:28:37;5.80;;;2.90;;
41943;SDS011;27636;52.610;13.244;2023-08-06T22:33:57;3.88;;;1.90;;
41943;SDS011;27636;52.610;13.244;2023-08-06T22:39:01;5.45;;;2.45;;
41943;SDS011;27636;52.610;13.244;2023-08-06T22:44:06;8.75;;;4.25;;
41943;SDS011;27636;52.610;13.244;2023-08-06T22:49:10;8.10;;;2.55;;
41943;SDS011;27636;52.610;13.244;2023-08-06T22:54:14;10.95;;;3.08;;
41943;SDS011;27636;52.610;13.244;2023-08-06T22:59:19;6.97;;;2.50;;
41943;SDS011;27636;52.610;13.244;2023-08-06T23:04:23;8.20;;;3.47;;
41943;SDS011;27636;52.610;13.244;2023-08-06T23:09:27;7.35;;;3.35;;
41943;SDS011;27636;52.610;13.244;2023-08-06T23:14:32;6.47;;;2.90;;
41943;SDS011;27636;52.610;13.244;2023-08-06T23:19:35;8.27;;;2.90;;
41943;SDS011;27636;52.610;13.244;2023-08-06T23:24:39;4.90;;;2.38;;
41943;SDS011;27636;52.610;13.244;2023-08-06T23:29:44;6.72;;;2.78;;
41943;SDS011;27636;52.610;13.244;2023-08-06T23:34:49;7.05;;;3.45;;
41943;SDS011;27636;52.610;13.244;2023-08-06T23:39:56;8.13;;;2.97;;
41943;SDS011;27636;52.610;13.244;2023-08-06T23:45:02;11.30;;;3.20;;
41943;SDS011;27636;52.610;13.244;2023-08-06T23:50:07;9.85;;;2.85;;
41943;SDS011;27636;52.610;13.244;2023-08-06T23:55:12;7.20;;;2.97;;
